Time;durP1;ratioP1;P1;durP2;ratioP2;P2;SDS_P1;SDS_P2;PMS_P1;PMS_P2;Temp;Humidity;BMP_temperature;BMP_pressure;BME280_temperature;BME280_humidity;BME280_pressure;Samples;Min_cycle;Max_cycle;Signal;HPM_P1;HPM_P2
2023/12/16 00:00:28;;;;;;;33.70;20.70;;;;;;;3.81;90.73;102054.04;112614;245;38326;-73
2023/12/16 00:03:22;;;;;;;34.50;21.10;;;;;;;3.84;91.00;102053.58;112648;245;38450;-74
2023/12/16 00:05:55;;;;;;;32.80;20.40;;;;;;;3.88;91.06;102060.54;112633;245;38806;-73
2023/12/16 00:08:29;;;;;;;33.00;20.40;;;;;;;3.88;90.98;102064.52;112382;243;175106;-73
2023/12/16 00:11:03;;;;;;;36.30;20.70;;;;;;;3.89;91.01;102064.36;112648;245;38995;-73
2023/12/16 00:13:38;;;;;;;33.10;19.80;;;;;;;3.89;90.85;102068.34;112544;243;154681;-73
2023/12/16 00:16:12;;;;;;;31.80;18.90;;;;;;;3.87;90.66;102069.33;112638;245;39606;-73
2023/12/16 00:18:46;;;;;;;36.20;21.30;;;;;;;3.89;90.89;102071.94;112650;245;39489;-73
2023/12/16 00:21:20;;;;;;;37.50;21.00;;;;;;;3.93;90.91;102067.52;112493;243;154286;-73
2023/12/16 00:23:54;;;;;;;35.00;20.30;;;;;;;3.92;90.78;102059.92;112611;245;38839;-73
2023/12/16 00:26:27;;;;;;;35.50;21.20;;;;;;;3.90;90.63;102059.03;112506;243;155237;-73
2023/12/16 00:29:01;;;;;;;33.00;21.30;;;;;;;3.89;90.63;102057.80;112635;245;38787;-72
2023/12/16 00:31:35;;;;;;;33.30;19.80;;;;;;;3.90;90.88;102057.48;112362;243;155122;-73
2023/12/16 00:34:09;;;;;;;34.80;21.00;;;;;;;3.93;91.02;102058.21;112620;245;38893;-73
2023/12/16 00:36:43;;;;;;;38.70;22.40;;;;;;;3.96;91.00;102061.71;112649;245;38857;-73
2023/12/16 00:39:17;;;;;;;39.70;21.90;;;;;;;3.91;90.70;102068.88;112509;243;153607;-73
2023/12/16 00:41:51;;;;;;;42.80;22.50;;;;;;;3.88;90.89;102071.77;112631;245;38319;-73
2023/12/16 00:44:25;;;;;;;39.10;22.50;;;;;;;3.90;91.13;102073.36;112494;243;154402;-73
2023/12/16 00:46:59;;;;;;;38.10;21.80;;;;;;;3.93;91.23;102074.09;112625;245;39725;-73
2023/12/16 00:49:33;;;;;;;39.20;23.40;;;;;;;3.95;91.07;102079.15;112515;245;155453;-73
2023/12/16 00:52:08;;;;;;;45.40;24.00;;;;;;;3.97;91.23;102084.34;112617;245;38436;-73
2023/12/16 00:54:42;;;;;;;48.30;25.50;;;;;;;3.98;91.22;102077.98;112616;245;39571;-73
2023/12/16 00:57:16;;;;;;;43.80;23.60;;;;;;;3.97;91.26;102082.64;112474;243;154036;-73
2023/12/16 00:59:50;;;;;;;49.00;24.60;;;;;;;3.95;91.15;102083.97;112630;245;38264;-73
2023/12/16 01:02:23;;;;;;;48.10;25.90;;;;;;;3.96;91.25;102089.00;112526;243;154595;-73
2023/12/16 01:04:57;;;;;;;48.60;27.00;;;;;;;3.99;91.34;102097.51;112641;245;39628;-73
2023/12/16 01:07:31;;;;;;;51.00;27.40;;;;;;;3.99;91.37;102105.11;112478;243;155075;-73
2023/12/16 01:10:06;;;;;;;55.00;29.20;;;;;;;4.00;91.47;102107.36;112592;245;38863;-73
2023/12/16 01:12:40;;;;;;;50.50;27.80;;;;;;;3.99;91.42;102096.82;112613;245;38543;-73
2023/12/16 01:15:15;;;;;;;53.70;27.00;;;;;;;3.97;91.40;102094.03;112224;244;176297;-73
2023/12/16 01:17:49;;;;;;;52.50;26.90;;;;;;;3.95;91.34;102091.23;112574;245;40007;-73
2023/12/16 01:20:23;;;;;;;58.10;30.10;;;;;;;3.95;91.32;102088.98;112491;243;154465;-73
2023/12/16 01:22:57;;;;;;;55.40;30.10;;;;;;;3.99;91.74;102087.48;112508;246;175143;-73
2023/12/16 01:25:31;;;;;;;53.00;29.10;;;;;;;4.00;91.78;102085.61;112530;243;154148;-72
2023/12/16 01:28:05;;;;;;;53.00;28.30;;;;;;;3.99;91.79;102081.29;112639;246;38781;-73
2023/12/16 01:30:39;;;;;;;53.00;26.70;;;;;;;4.00;91.82;102078.71;112508;246;38643;-72
2023/12/16 01:33:14;;;;;;;53.70;27.50;;;;;;;4.03;91.92;102072.36;112401;246;175099;-72
2023/12/16 01:35:48;;;;;;;53.50;27.40;;;;;;;4.04;91.84;102069.27;112624;245;38715;-72
2023/12/16 01:38:22;;;;;;;58.30;30.00;;;;;;;4.08;92.17;102069.84;112372;243;175178;-72
2023/12/16 01:40:56;;;;;;;54.70;28.30;;;;;;;4.11;92.23;102068.70;112526;245;39907;-72
2023/12/16 01:43:30;;;;;;;58.60;28.40;;;;;;;4.12;92.17;102074.59;112519;243;155083;-72
2023/12/16 01:46:06;;;;;;;57.10;27.80;;;;;;;4.12;92.07;102079.08;111968;246;911779;-73
2023/12/16 01:48:40;;;;;;;50.10;26.70;;;;;;;4.12;92.06;102079.06;112629;245;39279;-73
2023/12/16 01:51:14;;;;;;;51.20;27.30;;;;;;;4.14;92.00;102087.73;112465;243;154345;-73
2023/12/16 01:53:48;;;;;;;53.00;27.20;;;;;;;4.11;91.82;102092.36;112646;245;39198;-73
2023/12/16 01:56:22;;;;;;;60.80;29.80;;;;;;;4.12;92.18;102088.91;112492;243;154701;-71
2023/12/16 01:58:56;;;;;;;54.40;27.70;;;;;;;4.11;92.12;102089.06;112633;245;38588;-71
2023/12/16 02:01:30;;;;;;;55.40;28.90;;;;;;;4.09;91.93;102086.10;112503;244;155643;-71
2023/12/16 02:04:04;;;;;;;51.50;27.00;;;;;;;4.04;91.77;102082.05;112479;245;38629;-71
2023/12/16 02:06:39;;;;;;;51.40;26.20;;;;;;;4.03;91.93;102083.77;112628;245;39939;-72
2023/12/16 02:09:15;;;;;;;49.90;27.10;;;;;;;4.06;92.19;102083.64;112498;243;155064;-72
2023/12/16 02:11:48;;;;;;;50.00;26.40;;;;;;;4.06;92.23;102081.91;112632;245;38572;-71
2023/12/16 02:14:22;;;;;;;52.50;26.00;;;;;;;4.07;92.33;102081.23;112536;243;154491;-71
2023/12/16 02:16:56;;;;;;;51.30;24.80;;;;;;;4.08;92.50;102082.81;112635;245;38325;-72
2023/12/16 02:19:30;;;;;;;47.80;24.90;;;;;;;4.11;92.58;102090.80;112490;243;154802;-72
2023/12/16 02:22:04;;;;;;;48.80;25.00;;;;;;;4.16;92.68;102095.89;112633;245;38674;-72
2023/12/16 02:24:41;;;;;;;48.70;25.30;;;;;;;4.17;92.68;102100.20;112626;245;38680;-72
2023/12/16 02:27:15;;;;;;;47.70;24.70;;;;;;;4.16;92.46;102106.77;112472;245;154499;-72
2023/12/16 02:29:49;;;;;;;49.10;23.60;;;;;;;4.14;92.55;102114.34;112625;245;38402;-72
2023/12/16 02:32:23;;;;;;;46.30;23.40;;;;;;;4.14;92.45;102112.44;112414;244;154560;-72
2023/12/16 02:34:57;;;;;;;47.90;23.30;;;;;;;4.15;92.52;102116.27;112594;245;38325;-72
2023/12/16 02:37:32;;;;;;;45.00;23.50;;;;;;;4.18;92.63;102111.10;112526;243;155427;-72
2023/12/16 02:40:07;;;;;;;46.10;23.20;;;;;;;4.20;92.64;102111.48;112412;245;41375;-72
2023/12/16 02:42:41;;;;;;;49.40;24.50;;;;;;;4.21;92.74;102114.62;112631;245;38262;-72
2023/12/16 02:45:15;;;;;;;46.20;23.30;;;;;;;4.21;92.84;102114.27;112331;245;153648;-72
2023/12/16 02:47:49;;;;;;;46.80;23.50;;;;;;;4.20;92.71;102113.91;112652;245;39097;-72
2023/12/16 02:50:23;;;;;;;44.00;23.10;;;;;;;4.19;92.69;102113.90;112391;243;175140;-72
2023/12/16 02:52:57;;;;;;;44.70;23.40;;;;;;;4.21;92.53;102117.05;112620;246;38595;-73
2023/12/16 02:55:37;;;;;;;46.80;23.60;;;;;;;4.20;92.61;102117.38;112361;246;155164;-73
2023/12/16 02:58:11;;;;;;;49.00;24.50;;;;;;;4.20;92.71;102117.70;112626;245;39175;-72
2023/12/16 03:00:45;;;;;;;48.30;23.10;;;;;;;4.19;92.77;102115.97;112661;245;39918;-73
2023/12/16 03:03:19;;;;;;;46.20;22.60;;;;;;;4.19;92.83;102109.92;112467;244;155501;-73
2023/12/16 03:05:53;;;;;;;48.20;23.30;;;;;;;4.21;92.79;102106.66;112620;245;38709;-71
2023/12/16 03:08:26;;;;;;;45.40;23.50;;;;;;;4.20;92.79;102096.12;112486;243;154382;-71
2023/12/16 03:11:00;;;;;;;45.60;23.00;;;;;;;4.20;92.78;102085.75;112630;245;38244;-72
2023/12/16 03:13:34;;;;;;;49.30;23.90;;;;;;;4.21;92.96;102080.94;112614;245;38879;-72
2023/12/16 03:16:11;;;;;;;49.80;23.00;;;;;;;4.22;93.07;102076.27;112647;245;39186;-72
2023/12/16 03:18:45;;;;;;;45.50;22.80;;;;;;;4.21;93.01;102074.55;112616;245;38447;-72
2023/12/16 03:21:18;;;;;;;48.10;23.50;;;;;;;4.23;93.06;102080.96;112505;243;154850;-72
2023/12/16 03:23:52;;;;;;;49.10;23.80;;;;;;;4.23;93.04;102088.73;112675;245;38399;-72
2023/12/16 03:26:26;;;;;;;48.40;24.40;;;;;;;4.24;93.13;102090.14;112386;246;153897;-71
2023/12/16 03:29:00;;;;;;;47.30;23.30;;;;;;;4.24;93.07;102090.65;112619;245;38656;-71
2023/12/16 03:31:34;;;;;;;49.70;23.80;;;;;;;4.24;93.30;102102.91;112489;243;154374;-71
2023/12/16 03:34:07;;;;;;;48.20;24.10;;;;;;;4.26;93.43;102102.77;112601;245;38476;-71
2023/12/16 03:36:41;;;;;;;43.70;23.10;;;;;;;4.26;93.16;102113.83;112598;245;39759;-71
2023/12/16 03:39:15;;;;;;;43.60;23.10;;;;;;;4.26;93.12;102112.80;112482;244;154661;-71
2023/12/16 03:41:49;;;;;;;48.00;23.40;;;;;;;4.26;93.40;102098.81;112647;245;38587;-72
2023/12/16 03:44:23;;;;;;;51.30;24.50;;;;;;;4.29;93.50;102089.52;112487;243;153870;-72
2023/12/16 03:46:57;;;;;;;45.10;21.60;;;;;;;4.27;93.50;102085.36;112520;245;38665;-72
2023/12/16 03:49:31;;;;;;;45.20;21.50;;;;;;;4.26;93.49;102088.10;112525;243;154857;-72
2023/12/16 03:52:06;;;;;;;44.20;21.40;;;;;;;4.25;93.40;102088.94;112620;245;38798;-73
2023/12/16 03:54:40;;;;;;;43.40;22.10;;;;;;;4.27;93.81;102089.31;112629;245;40167;-73
2023/12/16 03:57:14;;;;;;;42.40;22.30;;;;;;;4.30;93.98;102094.38;112453;243;153950;-73
2023/12/16 03:59:48;;;;;;;45.80;22.00;;;;;;;4.31;93.85;102100.61;112636;245;38812;-73
2023/12/16 04:02:22;;;;;;;43.70;21.60;;;;;;;4.29;93.72;102104.38;112510;243;154049;-71
2023/12/16 04:04:56;;;;;;;45.40;21.70;;;;;;;4.29;93.80;102108.18;112649;245;39188;-71
2023/12/16 04:07:30;;;;;;;41.40;21.20;;;;;;;4.28;93.71;102101.77;112521;243;155709;-72
2023/12/16 04:10:05;;;;;;;41.90;21.10;;;;;;;4.32;93.97;102104.42;112590;245;38498;-72
2023/12/16 04:12:40;;;;;;;42.40;20.50;;;;;;;4.33;93.97;102109.11;112485;245;40327;-71
2023/12/16 04:15:19;;;;;;;45.70;20.50;;;;;;;4.36;94.31;102110.54;112454;244;154466;-71
2023/12/16 04:18:06;;;;;;;42.70;22.00;;;;;;;4.38;94.43;102107.81;112642;246;38266;-73
2023/12/16 04:20:40;;;;;;;41.10;20.10;;;;;;;4.41;94.48;102104.56;112490;244;155428;-72
2023/12/16 04:23:14;;;;;;;39.80;20.70;;;;;;;4.39;94.02;102101.08;112700;245;39136;-71
2023/12/16 04:25:48;;;;;;;41.40;19.90;;;;;;;4.40;94.30;102102.14;112582;245;154389;-72
2023/12/16 04:28:22;;;;;;;38.60;21.40;;;;;;;4.45;94.67;102101.69;112497;246;39740;-72
2023/12/16 04:30:56;;;;;;;43.40;22.00;;;;;;;4.48;94.61;102107.44;112628;246;38464;-73
2023/12/16 04:33:29;;;;;;;43.00;21.20;;;;;;;4.48;94.46;102112.63;112406;246;154772;-74
2023/12/16 04:36:04;;;;;;;40.10;20.60;;;;;;;4.46;94.43;102108.79;112622;246;38438;-73
2023/12/16 04:38:38;;;;;;;37.00;20.10;;;;;;;4.48;94.41;102114.34;112495;245;154654;-73
2023/12/16 04:41:15;;;;;;;37.20;20.00;;;;;;;4.50;94.42;102119.56;112591;246;38423;-72
2023/12/16 04:43:48;;;;;;;41.20;21.50;;;;;;;4.52;94.75;102127.19;112518;244;154290;-72
2023/12/16 04:46:24;;;;;;;40.40;20.90;;;;;;;4.55;94.82;102132.59;112681;245;38243;-71
2023/12/16 04:48:58;;;;;;;44.30;21.30;;;;;;;4.54;94.73;102133.98;112778;245;39757;-71
2023/12/16 04:51:31;;;;;;;38.60;19.40;;;;;;;4.52;94.35;102137.56;112450;245;154812;-72
2023/12/16 04:54:07;;;;;;;37.50;18.70;;;;;;;4.52;94.56;102134.61;112643;246;39572;-72
2023/12/16 04:56:40;;;;;;;39.30;20.10;;;;;;;4.56;94.98;102136.07;112479;245;154311;-72
2023/12/16 04:59:14;;;;;;;36.50;19.00;;;;;;;4.59;94.98;102138.73;112600;246;39960;-72
2023/12/16 05:01:48;;;;;;;41.20;21.20;;;;;;;4.60;95.00;102150.48;112330;244;154918;-71
2023/12/16 05:04:22;;;;;;;37.60;19.20;;;;;;;4.56;94.79;102144.04;112658;245;39219;-72
2023/12/16 05:06:56;;;;;;;33.70;18.80;;;;;;;4.56;94.93;102143.52;112717;245;38277;-72
2023/12/16 05:09:30;;;;;;;37.40;19.60;;;;;;;4.59;95.01;102141.99;112497;244;154684;-72
2023/12/16 05:12:06;;;;;;;35.80;19.10;;;;;;;4.61;95.21;102141.85;112647;245;40171;-72
2023/12/16 05:14:41;;;;;;;40.50;21.50;;;;;;;4.67;95.37;102139.67;112501;244;155108;-72
2023/12/16 05:17:15;;;;;;;36.30;19.90;;;;;;;4.68;95.26;102142.64;112649;245;38403;-73
2023/12/16 05:19:49;;;;;;;38.40;20.70;;;;;;;4.70;95.50;102140.43;112487;245;154063;-73
2023/12/16 05:22:23;;;;;;;32.70;16.80;;;;;;;4.75;95.57;102139.80;112499;245;38988;-74
2023/12/16 05:24:57;;;;;;;34.30;18.00;;;;;;;4.77;95.32;102135.16;112619;245;39614;-74
2023/12/16 05:27:31;;;;;;;32.50;18.30;;;;;;;4.77;95.19;102138.98;112490;243;154630;-73
2023/12/16 05:30:06;;;;;;;32.50;18.90;;;;;;;4.80;95.36;102142.13;112690;245;40064;-73
2023/12/16 05:32:39;;;;;;;32.70;18.00;;;;;;;4.79;95.17;102144.88;112476;245;153995;-72
2023/12/16 05:35:14;;;;;;;34.50;18.20;;;;;;;4.76;95.13;102148.45;112580;246;38874;-72
2023/12/16 05:37:48;;;;;;;32.30;16.80;;;;;;;4.76;95.27;102144.31;112502;243;155501;-72
2023/12/16 05:40:22;;;;;;;31.50;17.20;;;;;;;4.78;95.33;102145.89;112629;245;38256;-73
2023/12/16 05:42:56;;;;;;;29.50;17.00;;;;;;;4.81;95.50;102147.33;112738;245;38377;-72
2023/12/16 05:45:30;;;;;;;29.40;16.90;;;;;;;4.86;95.66;102148.77;112346;245;154945;-72
2023/12/16 05:48:04;;;;;;;32.70;17.40;;;;;;;4.90;95.51;102149.70;112661;246;38548;-73
2023/12/16 05:50:38;;;;;;;30.50;16.10;;;;;;;4.88;95.20;102145.19;112510;245;153874;-73
2023/12/16 05:53:12;;;;;;;27.60;15.60;;;;;;;4.88;95.33;102150.02;112598;246;39717;-73
2023/12/16 05:55:47;;;;;;;29.60;16.40;;;;;;;4.88;95.31;102152.97;112496;245;154615;-73
2023/12/16 05:58:21;;;;;;;28.00;15.20;;;;;;;4.91;95.49;102150.75;112519;246;38373;-73
2023/12/16 06:00:55;;;;;;;26.10;16.90;;;;;;;4.95;95.49;102146.14;112620;246;38729;-73
2023/12/16 06:03:29;;;;;;;29.10;17.10;;;;;;;4.95;95.37;102145.10;112442;245;153861;-73
2023/12/16 06:06:03;;;;;;;26.60;15.40;;;;;;;4.95;95.29;102149.94;112630;246;40160;-71
2023/12/16 06:08:37;;;;;;;29.60;14.70;;;;;;;4.93;95.33;102153.02;112493;244;155418;-71
2023/12/16 06:11:14;;;;;;;26.40;15.00;;;;;;;4.93;95.34;102152.67;112726;245;38354;-72
2023/12/16 06:13:49;;;;;;;25.50;15.00;;;;;;;4.95;95.49;102151.33;112621;244;155351;-72
2023/12/16 06:16:23;;;;;;;29.00;16.00;;;;;;;4.99;95.60;102152.08;112675;245;39455;-72
2023/12/16 06:18:57;;;;;;;26.10;15.30;;;;;;;5.04;95.86;102158.02;112778;245;40119;-72
2023/12/16 06:21:31;;;;;;;30.40;16.80;;;;;;;5.04;95.66;102158.54;112416;245;154774;-73
2023/12/16 06:24:08;;;;;;;30.80;16.60;;;;;;;5.03;95.58;102161.98;112487;247;38990;-73
2023/12/16 06:26:42;;;;;;;25.00;14.00;;;;;;;5.03;95.38;102158.02;112656;246;38526;-73
2023/12/16 06:29:16;;;;;;;25.80;14.00;;;;;;;5.02;95.37;102159.36;112628;247;38816;-73
2023/12/16 06:31:50;;;;;;;25.70;15.00;;;;;;;5.03;95.39;102164.75;112474;245;155573;-72
2023/12/16 06:34:24;;;;;;;26.80;15.30;;;;;;;5.05;95.45;102170.66;112492;246;38497;-72
2023/12/16 06:36:58;;;;;;;27.00;14.80;;;;;;;5.04;95.45;102168.77;112647;246;40284;-72
2023/12/16 06:39:32;;;;;;;27.80;15.90;;;;;;;5.05;95.64;102173.26;112641;246;39073;-72
2023/12/16 06:42:07;;;;;;;26.50;15.30;;;;;;;5.06;95.51;102179.16;112610;246;38395;-72
2023/12/16 06:44:42;;;;;;;27.70;15.00;;;;;;;5.08;95.54;102186.96;112473;244;154785;-73
2023/12/16 06:47:16;;;;;;;26.40;14.70;;;;;;;5.08;95.53;102188.34;112568;246;40237;-72
2023/12/16 06:49:50;;;;;;;24.90;14.70;;;;;;;5.11;95.80;102187.88;112599;246;38324;-72
2023/12/16 06:52:24;;;;;;;27.20;15.60;;;;;;;5.17;96.02;102186.90;112623;246;39659;-74
2023/12/16 06:54:58;;;;;;;27.60;16.70;;;;;;;5.18;95.78;102182.09;112512;246;172422;-74
2023/12/16 06:57:31;;;;;;;24.20;15.10;;;;;;;5.17;95.61;102175.67;112464;245;154738;-71
2023/12/16 07:00:07;;;;;;;26.60;15.20;;;;;;;5.17;95.63;102178.44;112484;246;175037;-71
2023/12/16 07:02:42;;;;;;;25.50;14.30;;;;;;;5.18;95.71;102181.56;112473;244;154762;-71
2023/12/16 07:05:16;;;;;;;28.70;15.80;;;;;;;5.19;95.63;102188.84;112665;245;38686;-71
2023/12/16 07:07:50;;;;;;;27.20;15.30;;;;;;;5.21;95.80;102191.10;112598;245;154279;-72
2023/12/16 07:10:24;;;;;;;28.40;16.20;;;;;;;5.23;95.85;102194.25;112558;246;38586;-72
2023/12/16 07:13:01;;;;;;;25.00;14.90;;;;;;;5.21;95.62;102192.34;112628;246;38259;-72
2023/12/16 07:15:35;;;;;;;26.80;15.20;;;;;;;5.20;95.68;102193.86;112348;245;189202;-73
2023/12/16 07:18:09;;;;;;;27.60;15.60;;;;;;;5.15;95.36;102190.88;112618;246;39031;-72
2023/12/16 07:20:43;;;;;;;27.50;16.10;;;;;;;5.16;95.67;102191.39;112508;245;154626;-73
2023/12/16 07:23:17;;;;;;;29.60;17.40;;;;;;;5.24;96.10;102196.34;112602;246;38544;-74
2023/12/16 07:25:51;;;;;;;32.70;17.30;;;;;;;5.28;96.14;102196.58;112503;245;154249;-73
2023/12/16 07:28:25;;;;;;;29.90;15.90;;;;;;;5.31;96.25;102198.34;112569;246;38655;-74
2023/12/16 07:30:59;;;;;;;33.40;19.60;;;;;;;5.34;96.24;102197.17;112607;246;38405;-74
2023/12/16 07:33:36;;;;;;;35.40;18.00;;;;;;;5.37;96.07;102195.48;112461;245;154538;-74
2023/12/16 07:36:12;;;;;;;26.20;14.00;;;;;;;5.37;95.86;102193.92;112634;246;38686;-73
2023/12/16 07:38:46;;;;;;;25.40;15.10;;;;;;;5.37;95.73;102193.41;112464;245;154096;-73
2023/12/16 07:41:20;;;;;;;27.70;15.20;;;;;;;5.39;95.81;102193.26;112570;246;39719;-72
2023/12/16 07:43:53;;;;;;;27.10;15.30;;;;;;;5.36;95.60;102191.14;112502;245;154114;-72
2023/12/16 07:46:27;;;;;;;24.50;14.50;;;;;;;5.35;95.74;102192.16;112543;246;40146;-72
2023/12/16 07:49:01;;;;;;;24.50;14.70;;;;;;;5.37;95.91;102190.11;112618;246;38494;-72
2023/12/16 07:51:36;;;;;;;26.50;14.40;;;;;;;5.41;96.13;102188.61;112493;244;155704;-72
2023/12/16 07:54:11;;;;;;;30.50;17.30;;;;;;;5.49;96.13;102191.64;112716;245;38824;-72
2023/12/16 07:56:45;;;;;;;27.50;15.30;;;;;;;5.55;96.08;102197.07;112525;245;154300;-72
2023/12/16 07:59:19;;;;;;;26.00;16.10;;;;;;;5.58;96.18;102195.05;112462;246;40524;-72
2023/12/16 08:01:55;;;;;;;27.60;15.40;;;;;;;5.63;96.35;102195.63;112521;244;155075;-71
2023/12/16 08:04:29;;;;;;;28.50;15.60;;;;;;;5.67;96.42;102200.35;112553;246;39730;-71
2023/12/16 08:07:02;;;;;;;26.70;14.50;;;;;;;5.73;96.42;102200.06;112632;246;40348;-73
2023/12/16 08:09:36;;;;;;;24.30;13.90;;;;;;;5.76;96.19;102201.82;112445;236;158483;-74
2023/12/16 08:12:11;;;;;;;23.80;13.30;;;;;;;5.79;95.99;102202.89;112644;246;38550;-73
2023/12/16 08:14:44;;;;;;;27.40;14.00;;;;;;;5.80;95.80;102204.81;112345;245;154944;-73
2023/12/16 08:17:18;;;;;;;23.70;13.60;;;;;;;5.83;95.85;102209.17;112687;245;38291;-73
2023/12/16 08:19:53;;;;;;;23.80;13.20;;;;;;;5.82;95.65;102215.23;112616;245;156492;-75
2023/12/16 08:22:27;;;;;;;20.90;11.60;;;;;;;5.80;95.38;102215.39;112456;247;38810;-73
2023/12/16 08:25:02;;;;;;;20.40;11.40;;;;;;;5.79;95.01;102215.72;112476;247;38232;-73
2023/12/16 08:27:37;;;;;;;18.20;10.90;;;;;;;5.78;94.95;102209.30;112390;245;155253;-73
2023/12/16 08:30:14;;;;;;;21.70;11.80;;;;;;;5.76;94.85;102216.02;112750;245;38887;-73
2023/12/16 08:32:48;;;;;;;21.70;11.20;;;;;;;5.75;95.23;102217.39;112512;245;154267;-73
2023/12/16 08:35:22;;;;;;;20.00;10.20;;;;;;;5.76;95.30;102217.76;112555;246;39276;-73
2023/12/16 08:37:57;;;;;;;20.00;10.00;;;;;;;5.82;95.57;102220.77;112528;245;154861;-72
2023/12/16 08:40:32;;;;;;;21.60;10.40;;;;;;;5.89;95.65;102219.46;112551;246;40051;-73
2023/12/16 08:43:06;;;;;;;18.50;10.40;;;;;;;5.94;95.44;102221.11;112600;246;38406;-72
2023/12/16 08:45:40;;;;;;;18.30;9.40;;;;;;;5.97;95.11;102224.44;112613;246;38536;-73
2023/12/16 08:48:14;;;;;;;20.30;8.70;;;;;;;5.99;95.21;102215.61;112638;246;38265;-73
2023/12/16 08:50:48;;;;;;;20.50;9.10;;;;;;;6.01;95.05;102217.90;112486;244;154689;-73
2023/12/16 08:53:22;;;;;;;18.90;8.50;;;;;;;6.04;94.76;102217.58;112668;245;38390;-73
2023/12/16 08:55:57;;;;;;;20.20;9.80;;;;;;;6.10;94.61;102220.05;112330;245;154285;-73
2023/12/16 08:58:31;;;;;;;19.60;9.90;;;;;;;6.13;94.31;102216.11;112539;246;38282;-74
2023/12/16 09:01:06;;;;;;;20.20;10.50;;;;;;;6.15;94.03;102216.31;112632;246;38308;-73
2023/12/16 09:03:42;;;;;;;22.20;10.90;;;;;;;6.20;93.98;102226.74;112475;245;154377;-73
2023/12/16 09:06:16;;;;;;;23.40;10.80;;;;;;;6.29;94.03;102230.64;112368;246;175395;-73
2023/12/16 09:08:50;;;;;;;22.70;12.40;;;;;;;6.40;93.74;102232.14;112472;245;154923;-76
2023/12/16 09:11:23;;;;;;;27.20;14.90;;;;;;;6.48;93.34;102227.00;112583;246;39149;-72
2023/12/16 09:13:57;;;;;;;28.50;15.90;;;;;;;6.52;93.01;102225.48;112530;246;189900;-72
2023/12/16 09:16:31;;;;;;;28.00;15.00;;;;;;;6.55;93.09;102223.94;112351;246;202735;-73
2023/12/16 09:19:07;;;;;;;31.20;16.30;;;;;;;6.58;93.14;102228.48;112646;247;38021;-73
2023/12/16 09:21:42;;;;;;;29.30;15.40;;;;;;;6.60;92.70;102236.12;112593;246;38381;-73
2023/12/16 09:24:15;;;;;;;28.80;14.80;;;;;;;6.62;92.54;102240.13;112638;247;39205;-74
2023/12/16 09:26:49;;;;;;;27.70;15.50;;;;;;;6.61;92.19;102249.83;112630;246;38346;-71
2023/12/16 09:29:25;;;;;;;29.10;15.00;;;;;;;6.62;92.34;102243.25;112609;246;38899;-71
2023/12/16 09:31:59;;;;;;;26.40;15.30;;;;;;;6.65;92.27;102242.05;112631;246;39452;-72
2023/12/16 09:34:33;;;;;;;31.60;15.00;;;;;;;6.65;92.16;102243.45;112438;245;38243;-72
2023/12/16 09:37:08;;;;;;;26.40;14.10;;;;;;;6.63;91.87;102244.13;112449;247;38519;-72
2023/12/16 09:39:45;;;;;;;27.70;15.20;;;;;;;6.64;91.73;102246.04;112346;246;154310;-72
2023/12/16 09:42:19;;;;;;;30.80;15.70;;;;;;;6.62;91.41;102247.39;112617;246;38864;-73
2023/12/16 09:44:56;;;;;;;29.70;14.90;;;;;;;6.60;91.64;102250.69;112369;246;153970;-73
2023/12/16 09:47:30;;;;;;;29.10;14.60;;;;;;;6.61;91.79;102243.06;112574;246;38534;-73
2023/12/16 09:50:04;;;;;;;26.60;12.60;;;;;;;6.65;91.92;102241.70;112442;247;38636;-73
2023/12/16 09:52:38;;;;;;;25.60;13.20;;;;;;;6.68;91.69;102243.29;112449;247;38292;-71
2023/12/16 09:55:14;;;;;;;24.00;12.10;;;;;;;6.71;91.63;102244.20;112617;246;38695;-71
2023/12/16 09:57:48;;;;;;;25.60;12.90;;;;;;;6.71;91.20;102233.95;112426;246;154033;-73
2023/12/16 10:00:23;;;;;;;25.90;12.70;;;;;;;6.71;91.36;102238.13;112588;246;39149;-73
2023/12/16 10:02:57;;;;;;;21.20;12.10;;;;;;;6.74;91.33;102233.79;112496;245;155283;-71
2023/12/16 10:05:32;;;;;;;22.60;11.00;;;;;;;6.78;91.37;102228.27;112546;246;39929;-71
2023/12/16 10:08:07;;;;;;;27.30;12.40;;;;;;;6.80;91.13;102232.63;112652;247;39502;-74
2023/12/16 10:10:42;;;;;;;21.80;12.10;;;;;;;6.82;90.99;102236.64;112622;247;39483;-72
2023/12/16 10:13:16;;;;;;;22.00;11.60;;;;;;;6.85;90.94;102229.91;112491;247;38701;-73
2023/12/16 10:15:50;;;;;;;23.70;12.80;;;;;;;6.89;90.96;102230.27;112419;245;154055;-72
2023/12/16 10:18:24;;;;;;;23.60;10.90;;;;;;;6.90;90.75;102231.67;112316;246;174964;-73
2023/12/16 10:20:58;;;;;;;17.00;9.10;;;;;;;6.93;90.59;102231.51;112651;246;40433;-71
2023/12/16 10:23:32;;;;;;;20.20;9.90;;;;;;;6.95;90.43;102224.23;112607;246;38417;-71
2023/12/16 10:26:07;;;;;;;26.40;11.80;;;;;;;6.97;90.48;102218.52;112638;246;38495;-73
2023/12/16 10:28:43;;;;;;;20.00;9.70;;;;;;;7.01;90.33;102214.05;112506;245;38758;-74
2023/12/16 10:31:18;;;;;;;23.20;10.90;;;;;;;7.02;90.24;102213.88;112499;246;174964;-73
2023/12/16 10:33:52;;;;;;;20.70;10.80;;;;;;;7.06;90.30;102214.08;112458;245;154868;-73
2023/12/16 10:36:26;;;;;;;19.70;11.20;;;;;;;7.12;90.42;102210.45;112721;245;39462;-73
2023/12/16 10:39:00;;;;;;;21.70;10.40;;;;;;;7.17;90.14;102211.70;112661;245;38742;-74
2023/12/16 10:41:34;;;;;;;26.70;12.60;;;;;;;7.18;89.79;102208.06;112734;245;38271;-71
2023/12/16 10:44:08;;;;;;;23.40;12.00;;;;;;;7.18;89.67;102209.63;112474;245;41797;-71
2023/12/16 10:46:42;;;;;;;24.10;12.70;;;;;;;7.18;89.47;102206.34;112681;245;38518;-75
2023/12/16 10:49:16;;;;;;;25.40;11.90;;;;;;;7.16;89.39;102199.04;112668;245;40032;-74
2023/12/16 10:51:49;;;;;;;22.50;13.70;;;;;;;7.16;89.05;102197.13;112430;245;154771;-73
2023/12/16 10:54:29;;;;;;;25.30;13.60;;;;;;;7.16;89.31;102197.82;112465;247;39709;-74
2023/12/16 10:57:13;;;;;;;25.10;15.10;;;;;;;7.17;89.18;102197.98;112359;245;154402;-71
2023/12/16 10:59:53;;;;;;;28.70;15.40;;;;;;;7.13;88.93;102190.33;112581;246;39078;-70
2023/12/16 11:02:28;;;;;;;30.10;15.20;;;;;;;7.08;88.62;102186.67;112617;246;39974;-70
2023/12/16 11:05:07;;;;;;;44.20;22.30;;;;;;;7.06;88.66;102189.95;112443;247;39572;-70
2023/12/16 11:07:42;;;;;;;32.90;18.40;;;;;;;7.04;88.64;102182.98;112555;247;38996;-74
2023/12/16 11:10:18;;;;;;;35.90;19.80;;;;;;;7.03;88.95;102181.59;112445;245;154093;-74
2023/12/16 11:12:52;;;;;;;29.10;16.60;;;;;;;7.01;88.83;102180.36;112422;246;39498;-73
2023/12/16 11:15:26;;;;;;;29.70;16.10;;;;;;;6.97;88.59;102181.58;112499;245;154803;-73
2023/12/16 11:18:04;;;;;;;28.20;16.40;;;;;;;6.96;88.83;102174.97;112469;246;174920;-73
2023/12/16 11:20:41;;;;;;;33.60;17.20;;;;;;;6.97;88.99;102169.25;112487;245;155711;-72
2023/12/16 11:23:16;;;;;;;30.00;16.50;;;;;;;6.97;88.88;102157.45;112563;246;38684;-72
2023/12/16 11:25:50;;;;;;;33.70;17.10;;;;;;;6.96;88.88;102149.98;112634;246;39505;-73
2023/12/16 11:28:24;;;;;;;30.40;16.20;;;;;;;6.98;88.92;102150.69;112441;245;155632;-72
2023/12/16 11:31:01;;;;;;;29.90;16.60;;;;;;;7.00;89.07;102156.78;111949;246;920865;-72
2023/12/16 11:33:47;;;;;;;30.80;17.10;;;;;;;7.03;89.11;102155.73;112484;245;155418;-74
2023/12/16 11:36:21;;;;;;;28.80;16.60;;;;;;;7.05;89.20;102159.40;112595;246;38287;-72
2023/12/16 11:38:56;;;;;;;28.70;16.10;;;;;;;7.06;89.16;102153.86;112301;245;155034;-72
2023/12/16 11:41:48;;;;;;;28.10;15.40;;;;;;;7.07;89.14;102154.38;112565;246;39747;-73
2023/12/16 11:44:22;;;;;;;25.50;15.40;;;;;;;7.11;89.30;102161.52;112611;246;38398;-73
2023/12/16 11:46:56;;;;;;;27.20;16.40;;;;;;;7.14;89.27;102158.75;112441;246;40537;-73